RYR9K LIBD-LIRF
Flight info
| Callsign | RYR9K |
|---|---|
| Flight time | 0h 58m |
| Altitude | 38000 |
| Route | TOPNO DCT DOGUS DCT EKTOL DCT AMSOR DCT TEA DCT SIPRO/N0389F180 Z803 LAT |
| Aircraft | B38M/M-SDE1FGHILORVWXY/HB1 |
Departure
| Time | 2026-05-04 15:32 |
|---|---|
| Airport | Bari Karol Wojtyła International Airport (LIBD) |
Arrival
| Time | 2026-05-04 16:31 |
|---|---|
| Airport | Rome–Fiumicino Leonardo da Vinci International Airport (LIRF) |
| Time | Latitude | Longitude | Altitude | Speed | Heading |
|---|---|---|---|---|---|
| 2026-05-04 15:09 | 41.13670 | 16.76702 | 139 ft | 0 kts | 203° |
| 2026-05-04 15:22 | 41.13663 | 16.76687 | 139 ft | 1 kts | 269° |
| 2026-05-04 15:23 | 41.13667 | 16.76677 | 139 ft | 2 kts | 301° |
| 2026-05-04 15:23 | 41.13679 | 16.76655 | 139 ft | 4 kts | 309° |
| 2026-05-04 15:23 | 41.13703 | 16.76617 | 139 ft | 7 kts | 313° |
| 2026-05-04 15:23 | 41.13747 | 16.76575 | 138 ft | 9 kts | 321° |
| 2026-05-04 15:24 | 41.13753 | 16.76374 | 137 ft | 14 kts | 253° |
| 2026-05-04 15:24 | 41.13674 | 16.76105 | 138 ft | 17 kts | 245° |
| 2026-05-04 15:25 | 41.13645 | 16.75989 | 139 ft | 6 kts | 250° |
| 2026-05-04 15:25 | 41.13629 | 16.75932 | 139 ft | 8 kts | 249° |
| 2026-05-04 15:25 | 41.13608 | 16.75859 | 139 ft | 9 kts | 250° |
| 2026-05-04 15:26 | 41.13556 | 16.75678 | 140 ft | 13 kts | 249° |
| 2026-05-04 15:26 | 41.13524 | 16.75563 | 142 ft | 13 kts | 249° |
| 2026-05-04 15:26 | 41.13461 | 16.75340 | 144 ft | 15 kts | 249° |
| 2026-05-04 15:27 | 41.13422 | 16.75203 | 146 ft | 16 kts | 249° |
| 2026-05-04 15:27 | 41.13343 | 16.74926 | 150 ft | 18 kts | 249° |
| 2026-05-04 15:28 | 41.13261 | 16.74635 | 154 ft | 17 kts | 249° |
| 2026-05-04 15:28 | 41.13218 | 16.74485 | 155 ft | 16 kts | 250° |
| 2026-05-04 15:28 | 41.13174 | 16.74230 | 153 ft | 11 kts | 294° |
| 2026-05-04 15:29 | 41.13192 | 16.74189 | 151 ft | 2 kts | 300° |
| 2026-05-04 15:30 | 41.13205 | 16.74159 | 150 ft | 7 kts | 302° |
| 2026-05-04 15:30 | 41.13311 | 16.74148 | 149 ft | 4 kts | 71° |
| 2026-05-04 15:31 | 41.13336 | 16.74237 | 150 ft | 7 kts | 69° |
| 2026-05-04 15:31 | 41.13383 | 16.74403 | 148 ft | 48 kts | 69° |
| 2026-05-04 15:32 | 41.14382 | 16.77909 | 979 ft | 183 kts | 72° |
| 2026-05-04 15:32 | 41.15393 | 16.81442 | 2371 ft | 228 kts | 68° |
| 2026-05-04 15:33 | 41.16609 | 16.85661 | 3813 ft | 260 kts | 68° |
| 2026-05-04 15:34 | 41.18525 | 16.92554 | 6589 ft | 272 kts | 69° |
| 2026-05-04 15:34 | 41.18930 | 16.95001 | 7523 ft | 276 kts | 86° |
| 2026-05-04 15:34 | 41.18716 | 17.00071 | 9416 ft | 279 kts | 102° |
| 2026-05-04 15:35 | 41.16460 | 17.04214 | 11131 ft | 287 kts | 135° |
| 2026-05-04 15:35 | 41.15026 | 17.06084 | 11931 ft | 291 kts | 134° |
| 2026-05-04 15:35 | 41.13481 | 17.07846 | 12705 ft | 297 kts | 149° |
| 2026-05-04 15:36 | 41.09461 | 17.08452 | 14170 ft | 306 kts | 200° |
| 2026-05-04 15:36 | 41.07624 | 17.07064 | 14862 ft | 307 kts | 223° |
| 2026-05-04 15:36 | 41.06104 | 17.05064 | 15517 ft | 310 kts | 227° |
| 2026-05-04 15:37 | 41.04580 | 17.03032 | 16222 ft | 312 kts | 229° |
| 2026-05-04 15:37 | 41.03366 | 17.00616 | 16508 ft | 323 kts | 251° |
| 2026-05-04 15:37 | 41.02888 | 16.97656 | 16693 ft | 338 kts | 265° |
| 2026-05-04 15:37 | 41.02594 | 16.94483 | 16819 ft | 356 kts | 264° |
| 2026-05-04 15:38 | 41.02290 | 16.91150 | 16956 ft | 372 kts | 265° |
| 2026-05-04 15:38 | 41.01986 | 16.87707 | 17302 ft | 379 kts | 265° |
| 2026-05-04 15:38 | 41.01691 | 16.84284 | 17869 ft | 380 kts | 265° |
| 2026-05-04 15:38 | 41.01390 | 16.80790 | 18330 ft | 383 kts | 265° |
| 2026-05-04 15:39 | 41.01088 | 16.77279 | 18748 ft | 385 kts | 265° |
| 2026-05-04 15:39 | 41.00784 | 16.73745 | 19160 ft | 387 kts | 265° |
| 2026-05-04 15:39 | 41.00167 | 16.66642 | 19960 ft | 389 kts | 265° |
| 2026-05-04 15:40 | 40.99857 | 16.63077 | 20354 ft | 390 kts | 265° |
| 2026-05-04 15:40 | 40.99544 | 16.59497 | 20714 ft | 392 kts | 265° |
| 2026-05-04 15:40 | 40.99233 | 16.55958 | 21076 ft | 393 kts | 265° |
| 2026-05-04 15:40 | 40.98916 | 16.52357 | 21435 ft | 394 kts | 266° |
| 2026-05-04 15:41 | 40.98596 | 16.48746 | 21781 ft | 396 kts | 266° |
| 2026-05-04 15:41 | 40.98274 | 16.45123 | 22106 ft | 397 kts | 266° |
| 2026-05-04 15:41 | 40.97951 | 16.41493 | 22419 ft | 398 kts | 266° |
| 2026-05-04 15:41 | 40.97625 | 16.37846 | 22721 ft | 400 kts | 266° |
| 2026-05-04 15:42 | 40.97297 | 16.34190 | 22996 ft | 401 kts | 266° |
| 2026-05-04 15:42 | 40.96966 | 16.30521 | 23256 ft | 403 kts | 266° |
| 2026-05-04 15:42 | 40.96633 | 16.26837 | 23534 ft | 404 kts | 266° |
| 2026-05-04 15:42 | 40.96298 | 16.23144 | 23776 ft | 405 kts | 266° |
| 2026-05-04 15:43 | 40.95960 | 16.19438 | 23987 ft | 406 kts | 266° |
| 2026-05-04 15:43 | 40.95622 | 16.15724 | 24180 ft | 408 kts | 266° |
| 2026-05-04 15:43 | 40.95328 | 16.11992 | 24356 ft | 407 kts | 272° |
| 2026-05-04 15:43 | 40.95668 | 16.08354 | 24544 ft | 404 kts | 284° |
| 2026-05-04 15:44 | 40.96252 | 16.04712 | 24672 ft | 407 kts | 284° |
| 2026-05-04 15:44 | 40.96846 | 16.01048 | 24855 ft | 407 kts | 284° |
| 2026-05-04 15:44 | 40.97449 | 15.97415 | 25282 ft | 401 kts | 284° |
| 2026-05-04 15:44 | 40.98050 | 15.93838 | 25745 ft | 395 kts | 284° |
| 2026-05-04 15:45 | 40.98645 | 15.90311 | 26203 ft | 391 kts | 284° |
| 2026-05-04 15:45 | 40.99233 | 15.86824 | 26676 ft | 386 kts | 284° |
| 2026-05-04 15:45 | 40.99814 | 15.83373 | 27155 ft | 382 kts | 284° |
| 2026-05-04 15:45 | 41.00386 | 15.79969 | 27646 ft | 377 kts | 284° |
| 2026-05-04 15:46 | 41.00761 | 15.77734 | 27976 ft | 374 kts | 284° |
| 2026-05-04 15:46 | 41.01320 | 15.74400 | 28467 ft | 368 kts | 284° |
| 2026-05-04 15:46 | 41.01870 | 15.71115 | 28985 ft | 363 kts | 284° |
| 2026-05-04 15:46 | 41.02411 | 15.67883 | 29498 ft | 356 kts | 284° |
| 2026-05-04 15:47 | 41.03117 | 15.63658 | 29924 ft | 359 kts | 284° |
| 2026-05-04 15:47 | 41.04043 | 15.58100 | 29920 ft | 378 kts | 284° |
| 2026-05-04 15:47 | 41.04608 | 15.54698 | 29943 ft | 389 kts | 283° |
| 2026-05-04 15:48 | 41.05197 | 15.51153 | 29959 ft | 399 kts | 283° |
| 2026-05-04 15:48 | 41.07044 | 15.39968 | 30081 ft | 428 kts | 283° |
| 2026-05-04 15:49 | 41.08338 | 15.32092 | 30305 ft | 442 kts | 283° |
| 2026-05-04 15:49 | 41.08988 | 15.28120 | 30759 ft | 440 kts | 284° |
| 2026-05-04 15:49 | 41.09631 | 15.24185 | 31345 ft | 433 kts | 284° |
| 2026-05-04 15:50 | 41.10263 | 15.20310 | 31931 ft | 428 kts | 284° |
| 2026-05-04 15:50 | 41.10891 | 15.16470 | 32125 ft | 424 kts | 284° |
| 2026-05-04 15:50 | 41.12128 | 15.08958 | 32134 ft | 418 kts | 284° |
| 2026-05-04 15:51 | 41.13362 | 15.01425 | 32139 ft | 418 kts | 284° |
| 2026-05-04 15:51 | 41.14590 | 14.93890 | 32143 ft | 418 kts | 284° |
| 2026-05-04 15:52 | 41.15803 | 14.86390 | 32140 ft | 412 kts | 284° |
| 2026-05-04 15:52 | 41.16985 | 14.78959 | 32132 ft | 411 kts | 284° |
| 2026-05-04 15:53 | 41.18163 | 14.71527 | 32137 ft | 411 kts | 284° |
| 2026-05-04 15:53 | 41.19328 | 14.64145 | 32131 ft | 411 kts | 284° |
| 2026-05-04 15:54 | 41.20495 | 14.56714 | 32131 ft | 411 kts | 284° |
| 2026-05-04 15:54 | 41.21656 | 14.49289 | 32138 ft | 411 kts | 284° |
| 2026-05-04 15:55 | 41.22814 | 14.41854 | 32141 ft | 411 kts | 284° |
| 2026-05-04 15:55 | 41.23967 | 14.34419 | 32145 ft | 411 kts | 284° |
| 2026-05-04 15:56 | 41.24801 | 14.30869 | 32136 ft | 407 kts | 295° |
| 2026-05-04 15:56 | 41.25974 | 14.27448 | 32138 ft | 408 kts | 294° |
| 2026-05-04 15:56 | 41.28246 | 14.20534 | 32135 ft | 408 kts | 294° |
| 2026-05-04 15:57 | 41.29384 | 14.17100 | 32020 ft | 404 kts | 295° |
| 2026-05-04 15:57 | 41.30516 | 14.13689 | 31323 ft | 402 kts | 294° |
| 2026-05-04 15:57 | 41.31629 | 14.10332 | 31040 ft | 391 kts | 294° |
| 2026-05-04 15:57 | 41.32712 | 14.07065 | 30687 ft | 383 kts | 294° |
| 2026-05-04 15:58 | 41.33781 | 14.03832 | 30158 ft | 385 kts | 294° |
| 2026-05-04 15:58 | 41.34865 | 14.00549 | 29400 ft | 389 kts | 294° |
| 2026-05-04 15:58 | 41.35954 | 13.97248 | 28800 ft | 391 kts | 294° |
| 2026-05-04 15:58 | 41.37036 | 13.93966 | 28271 ft | 393 kts | 294° |
| 2026-05-04 15:59 | 41.38132 | 13.90634 | 27699 ft | 392 kts | 294° |
| 2026-05-04 15:59 | 41.39225 | 13.87311 | 27155 ft | 392 kts | 294° |
| 2026-05-04 15:59 | 41.40314 | 13.83992 | 26608 ft | 391 kts | 293° |
| 2026-05-04 15:59 | 41.41400 | 13.80682 | 26079 ft | 389 kts | 293° |
| 2026-05-04 16:00 | 41.42483 | 13.77377 | 25532 ft | 389 kts | 293° |
| 2026-05-04 16:00 | 41.43561 | 13.74081 | 25013 ft | 388 kts | 293° |
| 2026-05-04 16:00 | 41.44638 | 13.70785 | 24492 ft | 387 kts | 293° |
| 2026-05-04 16:00 | 41.45713 | 13.67495 | 23967 ft | 387 kts | 293° |
| 2026-05-04 16:01 | 41.46785 | 13.64205 | 23410 ft | 387 kts | 293° |
| 2026-05-04 16:01 | 41.47855 | 13.60920 | 22834 ft | 385 kts | 293° |
| 2026-05-04 16:01 | 41.48918 | 13.57651 | 22331 ft | 383 kts | 293° |
| 2026-05-04 16:01 | 41.49973 | 13.54402 | 21842 ft | 380 kts | 293° |
| 2026-05-04 16:02 | 41.51018 | 13.51183 | 21421 ft | 377 kts | 293° |
| 2026-05-04 16:02 | 41.52043 | 13.48018 | 21046 ft | 376 kts | 292° |
| 2026-05-04 16:02 | 41.54101 | 13.41658 | 20230 ft | 370 kts | 292° |
| 2026-05-04 16:03 | 41.55118 | 13.38509 | 19775 ft | 368 kts | 292° |
| 2026-05-04 16:03 | 41.56127 | 13.35379 | 19320 ft | 366 kts | 292° |
| 2026-05-04 16:03 | 41.57131 | 13.32264 | 18868 ft | 364 kts | 292° |
| 2026-05-04 16:03 | 41.58128 | 13.29164 | 18413 ft | 363 kts | 292° |
| 2026-05-04 16:04 | 41.59121 | 13.26077 | 17920 ft | 360 kts | 292° |
| 2026-05-04 16:04 | 41.61078 | 13.19979 | 17031 ft | 354 kts | 292° |
| 2026-05-04 16:04 | 41.62041 | 13.16973 | 16612 ft | 350 kts | 292° |
| 2026-05-04 16:05 | 41.62981 | 13.14037 | 16203 ft | 347 kts | 292° |
| 2026-05-04 16:05 | 41.63925 | 13.11082 | 15784 ft | 344 kts | 292° |
| 2026-05-04 16:05 | 41.65790 | 13.05238 | 15000 ft | 339 kts | 292° |
| 2026-05-04 16:06 | 41.66713 | 13.02342 | 14612 ft | 337 kts | 291° |
| 2026-05-04 16:06 | 41.69136 | 12.94724 | 13528 ft | 332 kts | 292° |
| 2026-05-04 16:07 | 41.70339 | 12.90932 | 12996 ft | 330 kts | 291° |
| 2026-05-04 16:07 | 41.72998 | 12.82532 | 11814 ft | 331 kts | 291° |
| 2026-05-04 16:08 | 41.73899 | 12.79678 | 11425 ft | 335 kts | 291° |
| 2026-05-04 16:08 | 41.76562 | 12.71233 | 10796 ft | 314 kts | 290° |
| 2026-05-04 16:09 | 41.78212 | 12.65986 | 10486 ft | 297 kts | 290° |
| 2026-05-04 16:09 | 41.79912 | 12.61131 | 10226 ft | 282 kts | 305° |
| 2026-05-04 16:10 | 41.82611 | 12.57490 | 9808 ft | 274 kts | 314° |
| 2026-05-04 16:11 | 41.86722 | 12.52271 | 8891 ft | 272 kts | 314° |
| 2026-05-04 16:11 | 41.88094 | 12.50518 | 8643 ft | 273 kts | 314° |
| 2026-05-04 16:12 | 41.91711 | 12.44698 | 7869 ft | 269 kts | 304° |
| 2026-05-04 16:12 | 41.95025 | 12.38713 | 7119 ft | 264 kts | 304° |
| 2026-05-04 16:13 | 41.97198 | 12.34836 | 6622 ft | 260 kts | 304° |
| 2026-05-04 16:13 | 41.99374 | 12.30992 | 6098 ft | 257 kts | 304° |
| 2026-05-04 16:14 | 42.01512 | 12.27173 | 5572 ft | 253 kts | 299° |
| 2026-05-04 16:14 | 42.01917 | 12.22850 | 5162 ft | 225 kts | 255° |
| 2026-05-04 16:15 | 41.98948 | 12.19742 | 4373 ft | 188 kts | 165° |
| 2026-05-04 16:16 | 41.96582 | 12.21141 | 3926 ft | 186 kts | 162° |
| 2026-05-04 16:16 | 41.92594 | 12.22765 | 2341 ft | 212 kts | 163° |
| 2026-05-04 16:17 | 41.89946 | 12.23902 | 1699 ft | 185 kts | 163° |
| 2026-05-04 16:18 | 41.86420 | 12.25390 | 1884 ft | 196 kts | 164° |
| 2026-05-04 16:18 | 41.85063 | 12.25958 | 1951 ft | 213 kts | 163° |
| 2026-05-04 16:19 | 41.80867 | 12.27719 | 1907 ft | 214 kts | 163° |
| 2026-05-04 16:19 | 41.78018 | 12.28942 | 2305 ft | 216 kts | 163° |
| 2026-05-04 16:20 | 41.73706 | 12.30817 | 2966 ft | 219 kts | 163° |
| 2026-05-04 16:20 | 41.71104 | 12.32894 | 3414 ft | 228 kts | 122° |
| 2026-05-04 16:21 | 41.72391 | 12.38654 | 3974 ft | 251 kts | 30° |
| 2026-05-04 16:22 | 41.75816 | 12.39491 | 4012 ft | 254 kts | 4° |
| 2026-05-04 16:22 | 41.81092 | 12.39914 | 3993 ft | 254 kts | 4° |
| 2026-05-04 16:23 | 41.86324 | 12.39418 | 3422 ft | 252 kts | 344° |
| 2026-05-04 16:24 | 41.92988 | 12.36971 | 2017 ft | 245 kts | 344° |
| 2026-05-04 16:25 | 41.96266 | 12.35783 | 1998 ft | 237 kts | 344° |
| 2026-05-04 16:26 | 41.98627 | 12.29775 | 2136 ft | 194 kts | 258° |
| 2026-05-04 16:26 | 41.97740 | 12.24594 | 1927 ft | 182 kts | 245° |
| 2026-05-04 16:27 | 41.95875 | 12.22732 | 1994 ft | 171 kts | 203° |
| 2026-05-04 16:28 | 41.92549 | 12.22797 | 1665 ft | 162 kts | 161° |
| 2026-05-04 16:28 | 41.89637 | 12.24046 | 1115 ft | 143 kts | 164° |
| 2026-05-04 16:29 | 41.85995 | 12.25568 | 357 ft | 138 kts | 164° |
| 2026-05-04 16:30 | 41.83300 | 12.26692 | 14 ft | 102 kts | 162° |
| 2026-05-04 16:31 | 41.82553 | 12.27006 | 14 ft | 44 kts | 162° |
| 2026-05-04 16:31 | 41.81934 | 12.27101 | 13 ft | 10 kts | 192° |
| 2026-05-04 16:32 | 41.81725 | 12.27048 | 14 ft | 13 kts | 180° |
| 2026-05-04 16:33 | 41.81513 | 12.27117 | 15 ft | 18 kts | 163° |
| 2026-05-04 16:33 | 41.81263 | 12.27222 | 14 ft | 9 kts | 162° |
| 2026-05-04 16:34 | 41.81230 | 12.27236 | 14 ft | 7 kts | 162° |
| 2026-05-04 16:34 | 41.81139 | 12.27274 | 15 ft | 18 kts | 162° |
| 2026-05-04 16:35 | 41.80817 | 12.27329 | 15 ft | 15 kts | 189° |
| 2026-05-04 16:35 | 41.80593 | 12.26997 | 16 ft | 21 kts | 249° |
| 2026-05-04 16:36 | 41.80542 | 12.26811 | 17 ft | 22 kts | 249° |
| 2026-05-04 16:36 | 41.80436 | 12.26425 | 18 ft | 22 kts | 250° |
| 2026-05-04 16:37 | 41.80312 | 12.26095 | 18 ft | 17 kts | 211° |
| 2026-05-04 16:37 | 41.80202 | 12.26026 | 17 ft | 19 kts | 205° |
| 2026-05-04 16:37 | 41.79980 | 12.25889 | 18 ft | 11 kts | 205° |
| 2026-05-04 16:38 | 41.79835 | 12.25790 | 16 ft | 13 kts | 209° |
| 2026-05-04 16:39 | 41.79671 | 12.25686 | 17 ft | 4 kts | 205° |
| 2026-05-04 16:39 | 41.79631 | 12.25665 | 16 ft | 0 kts | 168° |
| 2026-05-04 16:40 | 41.79620 | 12.25694 | 16 ft | 3 kts | 115° |
| 2026-05-04 16:40 | 41.79597 | 12.25757 | 16 ft | 4 kts | 115° |
| 2026-05-04 16:41 | 41.79594 | 12.25767 | 18 ft | 0 kts | 115° |